createdAt,value
2022-11-23T00:01:23.831Z,7.30
2022-11-23T00:04:47.453Z,7.30
2022-11-23T00:08:11.151Z,7.30
2022-11-23T00:11:36.104Z,7.30
2022-11-23T00:15:01.212Z,7.30
2022-11-23T00:18:24.975Z,7.30
2022-11-23T00:21:48.629Z,7.30
2022-11-23T00:25:12.258Z,7.40
2022-11-23T00:28:38.698Z,7.30
2022-11-23T00:32:03.672Z,7.30
2022-11-23T00:35:27.477Z,7.30
2022-11-23T00:38:54.167Z,7.30
2022-11-23T00:42:17.723Z,7.30
2022-11-23T00:45:41.396Z,7.30
2022-11-23T00:49:06.747Z,7.30
2022-11-23T00:52:30.460Z,7.30
2022-11-23T00:55:54.460Z,7.20
2022-11-23T00:59:18.096Z,7.20
2022-11-23T01:02:41.728Z,7.10
2022-11-23T01:06:11.371Z,7.10
2022-11-23T01:09:35.181Z,7.10
2022-11-23T01:12:58.798Z,7.20
2022-11-23T01:16:24.847Z,7.20
2022-11-23T01:19:48.531Z,7.20
2022-11-23T01:23:13.569Z,7.10
2022-11-23T01:26:38.608Z,7.20
2022-11-23T01:30:02.379Z,7.10
2022-11-23T01:33:26.209Z,7.10
2022-11-23T01:36:49.823Z,7.20
2022-11-23T01:40:15.157Z,7.20
2022-11-23T01:43:38.941Z,7.20
2022-11-23T01:47:04.674Z,7.20
2022-11-23T01:50:28.418Z,7.30
2022-11-23T01:53:55.323Z,7.30
2022-11-23T01:57:24.696Z,7.30
2022-11-23T02:00:49.686Z,7.30
2022-11-23T02:04:20.710Z,7.30
2022-11-23T02:07:44.680Z,7.30
2022-11-23T02:11:12.753Z,7.30
2022-11-23T02:14:37.922Z,7.30
2022-11-23T02:18:05.004Z,7.30
2022-11-23T02:21:29.468Z,7.40
2022-11-23T02:24:56.192Z,7.40
2022-11-23T02:28:28.204Z,7.40
2022-11-23T02:31:51.892Z,7.50
2022-11-23T02:35:15.536Z,7.50
2022-11-23T02:38:39.973Z,7.50
2022-11-23T02:42:03.564Z,7.60
2022-11-23T02:45:38.322Z,7.60
2022-11-23T02:49:01.989Z,7.60
2022-11-23T02:52:25.611Z,7.60
2022-11-23T02:55:49.357Z,7.70
2022-11-23T02:59:14.733Z,7.70
2022-11-23T03:02:41.516Z,7.70
2022-11-23T03:06:08.474Z,7.70
2022-11-23T03:09:33.104Z,7.70
2022-11-23T03:12:57.765Z,7.80
2022-11-23T03:16:23.010Z,7.80
2022-11-23T03:19:48.164Z,7.80
2022-11-23T03:23:11.905Z,7.90
2022-11-23T03:26:36.889Z,7.90
2022-11-23T03:30:08.368Z,7.90
2022-11-23T03:33:32.701Z,7.90
2022-11-23T03:36:57.826Z,7.90
2022-11-23T03:40:22.070Z,8.00
2022-11-23T03:44:05.855Z,8.00
2022-11-23T03:47:29.539Z,8.00
2022-11-23T03:50:53.173Z,7.90
2022-11-23T03:54:18.892Z,7.80
2022-11-23T03:57:42.796Z,7.70
2022-11-23T04:01:07.726Z,7.70
2022-11-23T04:04:31.688Z,7.70
2022-11-23T04:08:01.968Z,7.80
2022-11-23T04:11:27.807Z,7.60
2022-11-23T04:14:51.439Z,7.70
2022-11-23T04:18:15.274Z,7.70
2022-11-23T04:21:39.292Z,7.80
2022-11-23T04:25:03.309Z,7.70
2022-11-23T04:28:29.149Z,7.70
2022-11-23T04:31:53.747Z,7.70
2022-11-23T04:35:18.416Z,7.70
2022-11-23T04:38:45.802Z,7.70
2022-11-23T04:42:13.375Z,7.60
2022-11-23T04:45:43.986Z,7.70
2022-11-23T04:49:16.361Z,7.60
2022-11-23T04:52:40.601Z,7.60
2022-11-23T04:56:10.237Z,7.60
2022-11-23T04:59:36.248Z,7.50
2022-11-23T05:03:01.886Z,7.60
2022-11-23T05:06:28.825Z,7.70
2022-11-23T05:09:52.397Z,7.70
2022-11-23T05:13:17.963Z,7.70
2022-11-23T05:16:42.511Z,7.70
2022-11-23T05:20:09.093Z,7.70
2022-11-23T05:23:36.923Z,7.70
2022-11-23T05:27:00.597Z,7.70
2022-11-23T05:30:25.206Z,7.70
2022-11-23T05:33:49.095Z,7.70
2022-11-23T05:37:19.353Z,7.80
2022-11-23T05:40:58.228Z,7.80
2022-11-23T05:44:22.178Z,7.80
2022-11-23T05:47:51.276Z,7.90
2022-11-23T05:51:20.365Z,7.90
2022-11-23T05:54:47.375Z,7.90
2022-11-23T05:58:11.904Z,7.90
2022-11-23T06:01:35.697Z,7.90
2022-11-23T06:05:00.690Z,7.90
2022-11-23T06:08:34.722Z,7.90
2022-11-23T06:11:59.751Z,7.90
2022-11-23T06:15:23.337Z,7.80
2022-11-23T06:18:47.545Z,7.80
2022-11-23T06:22:12.857Z,7.80
2022-11-23T06:25:48.382Z,7.80
2022-11-23T06:29:22.632Z,7.80
2022-11-23T06:32:46.320Z,7.80
2022-11-23T06:36:12.353Z,7.80
2022-11-23T06:39:42.086Z,7.80
2022-11-23T06:43:05.832Z,7.80
2022-11-23T06:46:37.186Z,7.70
2022-11-23T06:50:01.012Z,7.60
2022-11-23T06:53:26.910Z,7.50
2022-11-23T06:56:55.622Z,7.50
2022-11-23T07:00:20.291Z,7.50
2022-11-23T07:03:48.514Z,7.50
2022-11-23T07:07:19.404Z,7.50
2022-11-23T07:10:50.526Z,7.50
2022-11-23T07:14:14.657Z,7.60
2022-11-23T07:17:42.748Z,7.60
2022-11-23T07:21:08.631Z,7.80
2022-11-23T07:24:38.692Z,7.80
2022-11-23T07:28:07.646Z,7.90
2022-11-23T07:31:31.453Z,7.90
2022-11-23T07:34:55.388Z,7.90
2022-11-23T07:38:20.655Z,7.90
2022-11-23T07:41:47.329Z,7.90
2022-11-23T07:45:18.774Z,7.90
2022-11-23T07:48:45.467Z,7.90
2022-11-23T07:52:09.086Z,7.90
2022-11-23T07:55:34.481Z,8.00
2022-11-23T07:58:58.092Z,8.00
2022-11-23T08:02:22.155Z,8.00
2022-11-23T08:05:45.889Z,8.00
2022-11-23T08:09:09.445Z,8.00
2022-11-23T08:12:34.526Z,8.10
2022-11-23T08:15:58.229Z,8.10
2022-11-23T08:19:22.065Z,8.10
2022-11-23T08:22:45.654Z,8.20
2022-11-23T08:26:13.681Z,8.20
2022-11-23T08:29:39.068Z,8.30
2022-11-23T08:33:04.418Z,8.30
2022-11-23T08:36:28.305Z,8.40
2022-11-23T08:39:51.940Z,8.50
2022-11-23T08:43:15.607Z,8.70
2022-11-23T08:46:40.914Z,8.80
2022-11-23T08:50:04.902Z,8.80
2022-11-23T08:53:28.787Z,8.90
2022-11-23T08:56:52.690Z,9.00
2022-11-23T09:00:17.724Z,8.90
2022-11-23T09:03:43.694Z,8.80
2022-11-23T09:07:07.822Z,8.70
2022-11-23T09:10:31.430Z,8.60
2022-11-23T09:13:55.024Z,8.60
2022-11-23T09:17:18.665Z,8.70
2022-11-23T09:20:43.742Z,8.90
2022-11-23T09:24:08.612Z,9.00
2022-11-23T09:27:32.646Z,9.00
2022-11-23T09:30:57.134Z,9.10
2022-11-23T09:34:20.906Z,9.10
2022-11-23T09:37:45.846Z,9.10
2022-11-23T09:41:26.170Z,9.00
2022-11-23T09:45:05.148Z,8.90
2022-11-23T09:48:51.053Z,8.90
2022-11-23T09:52:18.063Z,9.00
2022-11-23T09:55:45.516Z,9.20
2022-11-23T09:59:18.648Z,9.30
2022-11-23T10:02:43.037Z,9.40
2022-11-23T10:06:17.482Z,9.70
2022-11-23T10:09:53.538Z,10.00
2022-11-23T10:13:36.652Z,9.90
2022-11-23T10:17:05.189Z,9.90
2022-11-23T10:20:45.300Z,9.90
2022-11-23T10:24:19.232Z,10.00
2022-11-23T10:27:44.929Z,10.00
2022-11-23T10:31:15.074Z,10.10
2022-11-23T10:34:50.599Z,10.20
2022-11-23T10:38:19.084Z,10.20
2022-11-23T10:41:44.989Z,10.10
2022-11-23T10:45:20.466Z,10.30
2022-11-23T10:48:47.422Z,10.30
2022-11-23T10:52:30.940Z,10.40
2022-11-23T10:55:58.105Z,10.50
2022-11-23T10:59:33.662Z,10.60
2022-11-23T11:02:59.166Z,10.90
2022-11-23T11:06:25.929Z,11.00
2022-11-23T11:09:54.132Z,11.00
2022-11-23T11:13:26.221Z,11.10
2022-11-23T11:16:52.136Z,11.00
2022-11-23T11:20:33.465Z,11.00
2022-11-23T11:24:02.356Z,10.90
2022-11-23T11:27:29.514Z,11.00
2022-11-23T11:31:09.222Z,11.00
2022-11-23T11:34:39.872Z,10.90
2022-11-23T11:38:09.733Z,10.90
2022-11-23T11:41:35.689Z,11.00
2022-11-23T11:45:02.405Z,11.10
2022-11-23T11:48:31.594Z,11.10
2022-11-23T11:51:59.428Z,10.90
2022-11-23T11:55:27.606Z,11.00
2022-11-23T11:58:59.187Z,11.00
2022-11-23T12:02:26.160Z,10.90
2022-11-23T12:05:52.302Z,10.90
2022-11-23T12:09:20.054Z,10.80
2022-11-23T12:12:44.369Z,10.70
2022-11-23T12:16:23.749Z,10.60
2022-11-23T12:19:53.291Z,10.60
2022-11-23T12:23:30.406Z,10.60
2022-11-23T12:27:01.031Z,10.60
2022-11-23T12:30:31.379Z,10.60
2022-11-23T12:34:17.387Z,10.50
2022-11-23T12:37:49.701Z,10.50
2022-11-23T12:41:24.245Z,10.40
2022-11-23T12:45:04.019Z,10.50
2022-11-23T12:48:38.548Z,10.50
2022-11-23T12:52:19.102Z,10.60
2022-11-23T12:55:53.935Z,10.70
2022-11-23T12:59:20.876Z,10.60
2022-11-23T13:03:21.474Z,10.70
2022-11-23T13:07:42.108Z,10.60
2022-11-23T13:11:14.862Z,10.60
2022-11-23T13:14:49.815Z,10.60
2022-11-23T13:18:26.379Z,10.60
2022-11-23T13:21:57.621Z,10.50
2022-11-23T13:25:26.263Z,10.50
2022-11-23T13:28:51.109Z,10.40
2022-11-23T13:32:43.608Z,10.40
2022-11-23T13:36:18.306Z,10.40
2022-11-23T13:40:05.796Z,10.50
2022-11-23T13:43:33.321Z,10.50
2022-11-23T13:47:00.835Z,10.50
2022-11-23T13:50:24.874Z,10.50
2022-11-23T13:53:55.861Z,10.60
2022-11-23T13:57:20.137Z,10.50
2022-11-23T14:00:51.039Z,10.50
2022-11-23T14:04:21.942Z,10.50
2022-11-23T14:07:47.015Z,10.50
2022-11-23T14:11:15.481Z,10.40
2022-11-23T14:14:51.150Z,10.20
2022-11-23T14:18:40.321Z,10.10
2022-11-23T14:22:14.855Z,10.00
2022-11-23T14:25:51.688Z,10.00
2022-11-23T14:29:40.664Z,9.90
2022-11-23T14:33:17.736Z,10.00
2022-11-23T14:36:51.280Z,9.90
2022-11-23T14:40:21.570Z,9.80
2022-11-23T14:43:47.396Z,9.70
2022-11-23T14:47:12.904Z,9.70
2022-11-23T14:50:36.607Z,9.60
2022-11-23T14:54:04.118Z,9.50
2022-11-23T14:57:31.957Z,9.50
2022-11-23T15:01:00.508Z,9.30
2022-11-23T15:04:27.109Z,9.30
2022-11-23T15:07:55.296Z,9.20
2022-11-23T15:11:23.902Z,9.20
2022-11-23T15:14:49.836Z,9.10
2022-11-23T15:18:15.997Z,9.10
2022-11-23T15:21:53.841Z,9.00
2022-11-23T15:25:20.897Z,8.90
2022-11-23T15:28:46.016Z,8.90
2022-11-23T15:32:33.404Z,8.80
2022-11-23T15:35:58.811Z,8.80
2022-11-23T15:39:24.608Z,8.70
2022-11-23T15:42:49.895Z,8.50
2022-11-23T15:46:15.124Z,8.60
2022-11-23T15:49:39.574Z,8.50
2022-11-23T15:53:03.875Z,8.40
2022-11-23T15:56:30.765Z,8.40
2022-11-23T15:59:58.950Z,8.30
2022-11-23T16:03:31.273Z,8.20
2022-11-23T16:06:55.997Z,8.20
2022-11-23T16:10:21.899Z,8.10
2022-11-23T16:13:45.838Z,8.10
2022-11-23T16:17:19.698Z,8.00
2022-11-23T16:20:46.498Z,8.00
2022-11-23T16:24:21.073Z,7.90
2022-11-23T16:27:44.628Z,7.90
2022-11-23T16:31:23.111Z,7.80
2022-11-23T16:34:46.792Z,7.80
2022-11-23T16:38:12.536Z,7.80
2022-11-23T16:41:36.302Z,7.70
2022-11-23T16:45:00.373Z,7.70
2022-11-23T16:48:41.476Z,7.60
2022-11-23T16:52:05.277Z,7.60
2022-11-23T16:55:30.493Z,7.60
2022-11-23T16:58:55.178Z,7.50
2022-11-23T17:02:19.557Z,7.60
2022-11-23T17:05:43.365Z,7.40
2022-11-23T17:09:08.274Z,7.40
2022-11-23T17:12:33.750Z,7.40
2022-11-23T17:15:57.990Z,7.30
2022-11-23T17:19:23.165Z,7.40
2022-11-23T17:22:51.401Z,7.40
2022-11-23T17:26:34.145Z,7.40
2022-11-23T17:30:02.300Z,7.50
2022-11-23T17:33:29.008Z,7.60
2022-11-23T17:36:54.291Z,7.70
2022-11-23T17:40:20.019Z,7.80
2022-11-23T17:43:43.912Z,7.90
2022-11-23T17:47:18.841Z,8.00
2022-11-23T17:50:42.408Z,8.00
2022-11-23T17:54:06.019Z,8.10
2022-11-23T17:57:29.686Z,8.10
2022-11-23T18:00:55.895Z,8.20
2022-11-23T18:04:20.930Z,8.20
2022-11-23T18:07:44.687Z,8.20
2022-11-23T18:11:08.959Z,8.30
2022-11-23T18:14:32.948Z,8.30
2022-11-23T18:18:00.257Z,8.30
2022-11-23T18:21:29.519Z,8.20
2022-11-23T18:24:53.163Z,8.00
2022-11-23T18:28:18.660Z,7.90
2022-11-23T18:31:42.436Z,7.80
2022-11-23T18:35:06.976Z,7.70
2022-11-23T18:38:32.310Z,7.60
2022-11-23T18:41:58.869Z,7.50
2022-11-23T18:45:25.250Z,7.50
2022-11-23T18:48:50.072Z,7.40
2022-11-23T18:52:13.942Z,7.40
2022-11-23T18:55:38.880Z,7.40
2022-11-23T18:59:02.690Z,7.50
2022-11-23T19:02:26.363Z,7.50
2022-11-23T19:05:49.862Z,7.50
2022-11-23T19:09:15.217Z,7.60
2022-11-23T19:12:40.202Z,7.60
2022-11-23T19:16:09.632Z,7.50
2022-11-23T19:19:33.715Z,7.40
2022-11-23T19:22:57.482Z,7.40
2022-11-23T19:26:21.485Z,7.30
2022-11-23T19:29:46.392Z,7.20
2022-11-23T19:33:10.649Z,7.20
2022-11-23T19:36:36.358Z,7.10
2022-11-23T19:40:00.044Z,7.00
2022-11-23T19:43:23.672Z,7.00
2022-11-23T19:46:48.577Z,6.90
2022-11-23T19:50:12.108Z,6.90
2022-11-23T19:53:37.284Z,6.90
2022-11-23T19:57:01.008Z,6.90
2022-11-23T20:00:24.641Z,6.90
2022-11-23T20:03:51.902Z,7.00
2022-11-23T20:07:15.470Z,6.90
2022-11-23T20:10:39.099Z,6.90
2022-11-23T20:14:03.079Z,6.90
2022-11-23T20:17:27.082Z,6.90
2022-11-23T20:20:51.962Z,6.90
2022-11-23T20:24:15.742Z,6.80
2022-11-23T20:27:40.685Z,6.80
2022-11-23T20:31:05.020Z,6.90
2022-11-23T20:34:29.423Z,6.80
2022-11-23T20:37:54.841Z,6.80
2022-11-23T20:41:20.342Z,6.90
2022-11-23T20:44:44.452Z,6.90
2022-11-23T20:48:08.484Z,6.90
2022-11-23T20:51:32.715Z,6.90
2022-11-23T20:54:57.953Z,6.90
2022-11-23T20:58:21.448Z,6.90
2022-11-23T21:01:45.641Z,7.00
2022-11-23T21:05:10.311Z,7.00
2022-11-23T21:08:38.038Z,7.00
2022-11-23T21:12:23.778Z,7.00
2022-11-23T21:15:47.628Z,7.00
2022-11-23T21:19:11.867Z,7.00
2022-11-23T21:22:36.505Z,7.00
2022-11-23T21:26:04.999Z,7.10
2022-11-23T21:29:31.078Z,7.10
2022-11-23T21:32:55.616Z,7.20
2022-11-23T21:36:19.800Z,7.20
2022-11-23T21:39:52.483Z,7.20
2022-11-23T21:43:17.077Z,7.20
2022-11-23T21:46:43.402Z,7.20
2022-11-23T21:50:08.533Z,7.20
2022-11-23T21:53:32.824Z,7.20
2022-11-23T21:56:56.389Z,7.20
2022-11-23T22:00:20.392Z,7.20
2022-11-23T22:03:48.670Z,7.30
2022-11-23T22:07:12.445Z,7.30
2022-11-23T22:10:36.199Z,7.30
2022-11-23T22:14:01.576Z,7.30
2022-11-23T22:17:25.225Z,7.40
2022-11-23T22:20:50.244Z,7.40
2022-11-23T22:24:15.641Z,7.40
2022-11-23T22:27:39.493Z,7.40
2022-11-23T22:31:03.772Z,7.50
2022-11-23T22:34:29.693Z,7.50
2022-11-23T22:37:56.030Z,7.60
2022-11-23T22:41:19.709Z,7.60
2022-11-23T22:44:43.416Z,7.60
2022-11-23T22:48:07.324Z,7.50
2022-11-23T22:51:31.449Z,7.50
2022-11-23T22:54:56.583Z,7.40
2022-11-23T22:58:21.009Z,7.30
2022-11-23T23:01:44.885Z,7.30
2022-11-23T23:05:09.340Z,7.30
2022-11-23T23:08:33.450Z,7.20
2022-11-23T23:11:58.473Z,7.30
2022-11-23T23:15:22.317Z,7.40
2022-11-23T23:18:46.092Z,7.40
2022-11-23T23:22:09.785Z,7.40
2022-11-23T23:25:33.367Z,7.40
2022-11-23T23:29:00.245Z,7.40
2022-11-23T23:32:24.948Z,7.40
2022-11-23T23:35:48.791Z,7.40
2022-11-23T23:39:13.754Z,7.50
2022-11-23T23:42:39.819Z,7.50
2022-11-23T23:46:07.249Z,7.50
2022-11-23T23:49:31.504Z,7.50
2022-11-23T23:52:55.182Z,7.50
2022-11-23T23:56:21.028Z,7.50
2022-11-23T23:59:44.921Z,7.60
